sensor_id;sensor_type;location;lat;lon;timestamp;temperature;humidity
11474;DHT22;5793;52.238;13.438;2022-08-24T00:00:16;15.70;99.90
11474;DHT22;5793;52.238;13.438;2022-08-24T00:02:44;15.70;99.90
11474;DHT22;5793;52.238;13.438;2022-08-24T00:05:14;15.70;99.90
11474;DHT22;5793;52.238;13.438;2022-08-24T00:07:42;15.80;99.90
11474;DHT22;5793;52.238;13.438;2022-08-24T00:10:10;15.80;99.90
11474;DHT22;5793;52.238;13.438;2022-08-24T00:12:39;15.80;99.90
11474;DHT22;5793;52.238;13.438;2022-08-24T00:15:10;15.90;99.90
11474;DHT22;5793;52.238;13.438;2022-08-24T00:17:39;15.90;99.90
11474;DHT22;5793;52.238;13.438;2022-08-24T00:20:09;15.80;99.90
11474;DHT22;5793;52.238;13.438;2022-08-24T00:22:39;15.80;99.90
11474;DHT22;5793;52.238;13.438;2022-08-24T00:25:09;15.70;99.90
11474;DHT22;5793;52.238;13.438;2022-08-24T00:27:38;15.70;99.90
11474;DHT22;5793;52.238;13.438;2022-08-24T00:30:09;15.60;99.90
11474;DHT22;5793;52.238;13.438;2022-08-24T00:32:37;15.60;99.90
11474;DHT22;5793;52.238;13.438;2022-08-24T00:35:06;15.60;99.90
11474;DHT22;5793;52.238;13.438;2022-08-24T00:37:35;15.60;99.90
11474;DHT22;5793;52.238;13.438;2022-08-24T00:40:09;15.50;99.90
11474;DHT22;5793;52.238;13.438;2022-08-24T00:42:38;15.50;99.90
11474;DHT22;5793;52.238;13.438;2022-08-24T00:45:11;15.40;99.90
11474;DHT22;5793;52.238;13.438;2022-08-24T00:47:41;15.40;99.90
11474;DHT22;5793;52.238;13.438;2022-08-24T00:50:27;15.60;99.90
11474;DHT22;5793;52.238;13.438;2022-08-24T00:52:59;15.60;99.90
11474;DHT22;5793;52.238;13.438;2022-08-24T00:55:33;15.50;99.90
11474;DHT22;5793;52.238;13.438;2022-08-24T00:58:04;15.50;99.90
11474;DHT22;5793;52.238;13.438;2022-08-24T01:00:44;15.40;99.90
11474;DHT22;5793;52.238;13.438;2022-08-24T01:03:15;15.30;99.90
11474;DHT22;5793;52.238;13.438;2022-08-24T01:05:43;15.40;99.90
11474;DHT22;5793;52.238;13.438;2022-08-24T01:08:12;15.40;99.90
11474;DHT22;5793;52.238;13.438;2022-08-24T01:10:43;15.40;99.90
11474;DHT22;5793;52.238;13.438;2022-08-24T01:13:13;15.30;99.90
11474;DHT22;5793;52.238;13.438;2022-08-24T01:15:43;15.30;99.90
11474;DHT22;5793;52.238;13.438;2022-08-24T01:18:16;15.20;99.90
11474;DHT22;5793;52.238;13.438;2022-08-24T01:21:07;15.20;99.90
11474;DHT22;5793;52.238;13.438;2022-08-24T01:23:40;15.20;99.90
11474;DHT22;5793;52.238;13.438;2022-08-24T01:26:11;15.10;99.90
11474;DHT22;5793;52.238;13.438;2022-08-24T01:28:43;15.00;99.90
11474;DHT22;5793;52.238;13.438;2022-08-24T01:31:12;15.00;99.90
11474;DHT22;5793;52.238;13.438;2022-08-24T01:33:41;15.00;99.90
11474;DHT22;5793;52.238;13.438;2022-08-24T01:36:19;15.00;99.90
11474;DHT22;5793;52.238;13.438;2022-08-24T01:38:57;15.00;99.90
11474;DHT22;5793;52.238;13.438;2022-08-24T01:41:26;15.00;99.90
11474;DHT22;5793;52.238;13.438;2022-08-24T01:43:55;14.90;99.90
11474;DHT22;5793;52.238;13.438;2022-08-24T01:46:23;14.90;99.90
11474;DHT22;5793;52.238;13.438;2022-08-24T01:48:51;14.90;99.90
11474;DHT22;5793;52.238;13.438;2022-08-24T01:51:19;14.90;99.90
11474;DHT22;5793;52.238;13.438;2022-08-24T01:53:47;14.80;99.90
11474;DHT22;5793;52.238;13.438;2022-08-24T01:56:16;14.90;99.90
11474;DHT22;5793;52.238;13.438;2022-08-24T01:58:45;14.80;99.90
11474;DHT22;5793;52.238;13.438;2022-08-24T02:01:14;14.80;99.90
11474;DHT22;5793;52.238;13.438;2022-08-24T02:03:43;14.80;99.90
11474;DHT22;5793;52.238;13.438;2022-08-24T02:06:17;14.80;99.90
11474;DHT22;5793;52.238;13.438;2022-08-24T02:08:45;14.80;99.90
11474;DHT22;5793;52.238;13.438;2022-08-24T02:11:13;14.80;99.90
11474;DHT22;5793;52.238;13.438;2022-08-24T02:13:42;14.80;99.90
11474;DHT22;5793;52.238;13.438;2022-08-24T02:16:10;14.80;99.90
11474;DHT22;5793;52.238;13.438;2022-08-24T02:18:39;14.80;99.90
11474;DHT22;5793;52.238;13.438;2022-08-24T02:21:08;14.90;99.90
11474;DHT22;5793;52.238;13.438;2022-08-24T02:23:38;14.90;99.90
11474;DHT22;5793;52.238;13.438;2022-08-24T02:26:08;14.90;99.90
11474;DHT22;5793;52.238;13.438;2022-08-24T02:28:37;14.90;99.90
11474;DHT22;5793;52.238;13.438;2022-08-24T02:31:08;14.80;99.90
11474;DHT22;5793;52.238;13.438;2022-08-24T02:33:37;14.90;99.90
11474;DHT22;5793;52.238;13.438;2022-08-24T02:36:07;14.90;99.90
11474;DHT22;5793;52.238;13.438;2022-08-24T02:38:51;14.80;99.90
11474;DHT22;5793;52.238;13.438;2022-08-24T02:41:20;14.80;99.90
11474;DHT22;5793;52.238;13.438;2022-08-24T02:43:47;14.90;99.90
11474;DHT22;5793;52.238;13.438;2022-08-24T02:46:18;14.80;99.90
11474;DHT22;5793;52.238;13.438;2022-08-24T02:48:46;14.70;99.90
11474;DHT22;5793;52.238;13.438;2022-08-24T02:51:29;14.70;99.90
11474;DHT22;5793;52.238;13.438;2022-08-24T02:54:10;14.60;99.90
11474;DHT22;5793;52.238;13.438;2022-08-24T02:56:37;14.60;99.90
11474;DHT22;5793;52.238;13.438;2022-08-24T02:59:06;14.60;99.90
11474;DHT22;5793;52.238;13.438;2022-08-24T03:01:35;14.60;99.90
11474;DHT22;5793;52.238;13.438;2022-08-24T03:04:03;14.60;99.90
11474;DHT22;5793;52.238;13.438;2022-08-24T03:06:31;14.60;99.90
11474;DHT22;5793;52.238;13.438;2022-08-24T03:08:59;14.70;99.90
11474;DHT22;5793;52.238;13.438;2022-08-24T03:11:27;14.80;99.90
11474;DHT22;5793;52.238;13.438;2022-08-24T03:13:54;14.90;99.90
11474;DHT22;5793;52.238;13.438;2022-08-24T03:16:25;15.00;99.90
11474;DHT22;5793;52.238;13.438;2022-08-24T03:18:54;15.10;99.90
11474;DHT22;5793;52.238;13.438;2022-08-24T03:21:22;15.20;99.90
11474;DHT22;5793;52.238;13.438;2022-08-24T03:23:50;15.20;99.90
11474;DHT22;5793;52.238;13.438;2022-08-24T03:26:18;15.30;99.90
11474;DHT22;5793;52.238;13.438;2022-08-24T03:28:46;15.40;99.90
11474;DHT22;5793;52.238;13.438;2022-08-24T03:31:15;15.60;99.90
11474;DHT22;5793;52.238;13.438;2022-08-24T03:33:43;15.70;99.90
11474;DHT22;5793;52.238;13.438;2022-08-24T03:36:12;15.80;99.90
11474;DHT22;5793;52.238;13.438;2022-08-24T03:38:40;15.90;99.90
11474;DHT22;5793;52.238;13.438;2022-08-24T03:41:08;15.90;99.90
11474;DHT22;5793;52.238;13.438;2022-08-24T03:43:37;16.00;99.90
11474;DHT22;5793;52.238;13.438;2022-08-24T03:46:17;16.10;99.90
11474;DHT22;5793;52.238;13.438;2022-08-24T03:48:46;16.20;99.90
11474;DHT22;5793;52.238;13.438;2022-08-24T03:51:18;16.20;99.90
11474;DHT22;5793;52.238;13.438;2022-08-24T03:53:47;16.30;99.90
11474;DHT22;5793;52.238;13.438;2022-08-24T03:56:15;16.30;99.90
11474;DHT22;5793;52.238;13.438;2022-08-24T03:58:44;16.60;99.90
11474;DHT22;5793;52.238;13.438;2022-08-24T04:01:12;16.50;99.90
11474;DHT22;5793;52.238;13.438;2022-08-24T04:03:42;16.60;99.90
11474;DHT22;5793;52.238;13.438;2022-08-24T04:06:11;16.70;99.90
11474;DHT22;5793;52.238;13.438;2022-08-24T04:08:41;16.80;99.90
11474;DHT22;5793;52.238;13.438;2022-08-24T04:11:10;16.80;99.90
11474;DHT22;5793;52.238;13.438;2022-08-24T04:13:38;16.90;99.90
11474;DHT22;5793;52.238;13.438;2022-08-24T04:16:08;16.90;99.90
11474;DHT22;5793;52.238;13.438;2022-08-24T04:18:36;16.90;99.90
11474;DHT22;5793;52.238;13.438;2022-08-24T04:21:04;17.00;99.90
11474;DHT22;5793;52.238;13.438;2022-08-24T04:23:32;17.00;99.90
11474;DHT22;5793;52.238;13.438;2022-08-24T04:26:15;17.10;99.90
11474;DHT22;5793;52.238;13.438;2022-08-24T04:29:05;17.10;99.90
11474;DHT22;5793;52.238;13.438;2022-08-24T04:31:35;17.10;99.90
11474;DHT22;5793;52.238;13.438;2022-08-24T04:34:04;17.20;99.90
11474;DHT22;5793;52.238;13.438;2022-08-24T04:36:32;17.20;99.90
11474;DHT22;5793;52.238;13.438;2022-08-24T04:39:01;17.30;99.90
11474;DHT22;5793;52.238;13.438;2022-08-24T04:41:30;17.30;99.90
11474;DHT22;5793;52.238;13.438;2022-08-24T04:44:00;17.30;99.90
11474;DHT22;5793;52.238;13.438;2022-08-24T04:46:28;17.30;99.90
11474;DHT22;5793;52.238;13.438;2022-08-24T04:48:56;17.40;99.90
11474;DHT22;5793;52.238;13.438;2022-08-24T04:51:24;17.50;99.90
11474;DHT22;5793;52.238;13.438;2022-08-24T04:53:56;17.50;99.90
11474;DHT22;5793;52.238;13.438;2022-08-24T04:56:24;17.50;99.90
11474;DHT22;5793;52.238;13.438;2022-08-24T04:58:54;17.60;99.90
11474;DHT22;5793;52.238;13.438;2022-08-24T05:01:25;17.70;99.90
11474;DHT22;5793;52.238;13.438;2022-08-24T05:03:53;17.60;99.90
11474;DHT22;5793;52.238;13.438;2022-08-24T05:06:23;17.70;99.90
11474;DHT22;5793;52.238;13.438;2022-08-24T05:08:52;17.70;99.90
11474;DHT22;5793;52.238;13.438;2022-08-24T05:11:21;17.80;99.90
11474;DHT22;5793;52.238;13.438;2022-08-24T05:13:50;17.80;99.90
11474;DHT22;5793;52.238;13.438;2022-08-24T05:16:20;17.80;99.90
11474;DHT22;5793;52.238;13.438;2022-08-24T05:18:49;17.90;99.90
11474;DHT22;5793;52.238;13.438;2022-08-24T05:21:18;18.00;99.90
11474;DHT22;5793;52.238;13.438;2022-08-24T05:23:47;18.10;99.90
11474;DHT22;5793;52.238;13.438;2022-08-24T05:26:18;18.30;99.90
11474;DHT22;5793;52.238;13.438;2022-08-24T05:28:46;18.40;99.90
11474;DHT22;5793;52.238;13.438;2022-08-24T05:31:17;18.50;99.90
11474;DHT22;5793;52.238;13.438;2022-08-24T05:33:48;18.60;99.90
11474;DHT22;5793;52.238;13.438;2022-08-24T05:36:19;18.70;99.90
11474;DHT22;5793;52.238;13.438;2022-08-24T05:38:49;18.80;99.90
11474;DHT22;5793;52.238;13.438;2022-08-24T05:41:17;18.90;99.90
11474;DHT22;5793;52.238;13.438;2022-08-24T05:43:45;18.90;99.90
11474;DHT22;5793;52.238;13.438;2022-08-24T05:46:13;19.00;99.90
11474;DHT22;5793;52.238;13.438;2022-08-24T05:48:41;19.10;99.90
11474;DHT22;5793;52.238;13.438;2022-08-24T05:51:20;19.20;99.90
11474;DHT22;5793;52.238;13.438;2022-08-24T05:53:48;19.20;99.90
11474;DHT22;5793;52.238;13.438;2022-08-24T05:56:18;19.30;99.90
11474;DHT22;5793;52.238;13.438;2022-08-24T05:58:46;19.30;99.90
11474;DHT22;5793;52.238;13.438;2022-08-24T06:01:17;19.20;99.90
11474;DHT22;5793;52.238;13.438;2022-08-24T06:03:47;19.30;99.90
11474;DHT22;5793;52.238;13.438;2022-08-24T06:06:16;19.40;99.90
11474;DHT22;5793;52.238;13.438;2022-08-24T06:08:48;19.50;99.90
11474;DHT22;5793;52.238;13.438;2022-08-24T06:11:21;19.50;99.90
11474;DHT22;5793;52.238;13.438;2022-08-24T06:13:57;19.60;99.90
11474;DHT22;5793;52.238;13.438;2022-08-24T06:16:26;19.70;99.90
11474;DHT22;5793;52.238;13.438;2022-08-24T06:18:55;19.70;99.90
11474;DHT22;5793;52.238;13.438;2022-08-24T06:21:25;19.80;99.90
11474;DHT22;5793;52.238;13.438;2022-08-24T06:23:55;19.90;99.90
11474;DHT22;5793;52.238;13.438;2022-08-24T06:26:23;20.00;99.90
11474;DHT22;5793;52.238;13.438;2022-08-24T06:29:08;20.20;99.90
11474;DHT22;5793;52.238;13.438;2022-08-24T06:31:37;20.40;99.90
11474;DHT22;5793;52.238;13.438;2022-08-24T06:34:08;20.50;99.90
11474;DHT22;5793;52.238;13.438;2022-08-24T06:36:36;20.50;99.90
11474;DHT22;5793;52.238;13.438;2022-08-24T06:39:08;20.60;99.90
11474;DHT22;5793;52.238;13.438;2022-08-24T06:41:36;20.70;99.90
11474;DHT22;5793;52.238;13.438;2022-08-24T06:44:06;20.80;99.90
11474;DHT22;5793;52.238;13.438;2022-08-24T06:46:34;21.00;99.90
11474;DHT22;5793;52.238;13.438;2022-08-24T06:49:03;21.10;99.90
11474;DHT22;5793;52.238;13.438;2022-08-24T06:51:31;21.20;99.90
11474;DHT22;5793;52.238;13.438;2022-08-24T06:53:59;21.50;99.90
11474;DHT22;5793;52.238;13.438;2022-08-24T06:56:28;21.70;99.90
11474;DHT22;5793;52.238;13.438;2022-08-24T06:58:56;22.00;99.90
11474;DHT22;5793;52.238;13.438;2022-08-24T07:01:26;22.00;99.90
11474;DHT22;5793;52.238;13.438;2022-08-24T07:03:54;22.10;99.90
11474;DHT22;5793;52.238;13.438;2022-08-24T07:06:23;22.40;99.90
11474;DHT22;5793;52.238;13.438;2022-08-24T07:08:51;22.60;99.90
11474;DHT22;5793;52.238;13.438;2022-08-24T07:11:19;22.80;99.90
11474;DHT22;5793;52.238;13.438;2022-08-24T07:13:49;22.90;99.90
11474;DHT22;5793;52.238;13.438;2022-08-24T07:16:18;23.00;99.90
11474;DHT22;5793;52.238;13.438;2022-08-24T07:18:46;23.10;99.90
11474;DHT22;5793;52.238;13.438;2022-08-24T07:21:16;23.30;99.90
11474;DHT22;5793;52.238;13.438;2022-08-24T07:23:45;23.50;99.90
11474;DHT22;5793;52.238;13.438;2022-08-24T07:26:15;23.40;99.90
11474;DHT22;5793;52.238;13.438;2022-08-24T07:28:49;23.40;99.90
11474;DHT22;5793;52.238;13.438;2022-08-24T07:31:19;23.40;99.90
11474;DHT22;5793;52.238;13.438;2022-08-24T07:33:47;23.40;99.90
11474;DHT22;5793;52.238;13.438;2022-08-24T07:36:15;23.40;99.90
11474;DHT22;5793;52.238;13.438;2022-08-24T07:38:49;23.50;99.90
11474;DHT22;5793;52.238;13.438;2022-08-24T07:41:18;23.60;99.90
11474;DHT22;5793;52.238;13.438;2022-08-24T07:44:08;23.50;99.90
11474;DHT22;5793;52.238;13.438;2022-08-24T07:46:36;23.50;99.90
11474;DHT22;5793;52.238;13.438;2022-08-24T07:49:06;23.50;99.90
11474;DHT22;5793;52.238;13.438;2022-08-24T07:51:54;23.60;99.90
11474;DHT22;5793;52.238;13.438;2022-08-24T07:54:23;23.70;99.90
11474;DHT22;5793;52.238;13.438;2022-08-24T07:56:51;23.30;99.90
11474;DHT22;5793;52.238;13.438;2022-08-24T07:59:20;23.20;99.90
11474;DHT22;5793;52.238;13.438;2022-08-24T08:01:48;23.50;99.90
11474;DHT22;5793;52.238;13.438;2022-08-24T08:04:18;24.00;99.90
11474;DHT22;5793;52.238;13.438;2022-08-24T08:06:47;24.60;99.90
11474;DHT22;5793;52.238;13.438;2022-08-24T08:09:15;25.20;99.90
11474;DHT22;5793;52.238;13.438;2022-08-24T08:11:43;25.70;99.90
11474;DHT22;5793;52.238;13.438;2022-08-24T08:14:11;26.60;99.90
11474;DHT22;5793;52.238;13.438;2022-08-24T08:16:41;27.30;99.90
11474;DHT22;5793;52.238;13.438;2022-08-24T08:19:09;28.00;99.90
11474;DHT22;5793;52.238;13.438;2022-08-24T08:21:40;27.80;99.90
11474;DHT22;5793;52.238;13.438;2022-08-24T08:24:26;27.30;99.90
11474;DHT22;5793;52.238;13.438;2022-08-24T08:26:54;26.80;99.90
11474;DHT22;5793;52.238;13.438;2022-08-24T08:29:23;26.30;99.90
11474;DHT22;5793;52.238;13.438;2022-08-24T08:31:53;25.90;99.90
11474;DHT22;5793;52.238;13.438;2022-08-24T08:34:21;25.30;99.90
11474;DHT22;5793;52.238;13.438;2022-08-24T08:36:49;25.10;99.90
11474;DHT22;5793;52.238;13.438;2022-08-24T08:39:19;26.80;99.90
11474;DHT22;5793;52.238;13.438;2022-08-24T08:42:19;29.10;99.90
11474;DHT22;5793;52.238;13.438;2022-08-24T08:50:56;27.40;99.90
11474;DHT22;5793;52.238;13.438;2022-08-24T08:54:03;28.00;99.90
11474;DHT22;5793;52.238;13.438;2022-08-24T08:56:43;31.00;99.90
11474;DHT22;5793;52.238;13.438;2022-08-24T08:59:19;31.90;99.90
11474;DHT22;5793;52.238;13.438;2022-08-24T09:01:59;31.70;99.90
11474;DHT22;5793;52.238;13.438;2022-08-24T09:05:01;30.30;99.90
11474;DHT22;5793;52.238;13.438;2022-08-24T09:07:43;28.70;99.90
11474;DHT22;5793;52.238;13.438;2022-08-24T09:10:20;27.50;99.90
11474;DHT22;5793;52.238;13.438;2022-08-24T09:13:08;26.50;99.90
11474;DHT22;5793;52.238;13.438;2022-08-24T09:15:56;25.70;99.90
11474;DHT22;5793;52.238;13.438;2022-08-24T09:18:36;25.60;99.90
11474;DHT22;5793;52.238;13.438;2022-08-24T09:21:26;29.80;99.90
11474;DHT22;5793;52.238;13.438;2022-08-24T09:24:15;34.10;99.90
11474;DHT22;5793;52.238;13.438;2022-08-24T09:26:57;36.60;88.80
11474;DHT22;5793;52.238;13.438;2022-08-24T09:29:40;37.50;73.50
11474;DHT22;5793;52.238;13.438;2022-08-24T09:32:26;35.00;78.10
11474;DHT22;5793;52.238;13.438;2022-08-24T09:35:03;32.60;87.90
11474;DHT22;5793;52.238;13.438;2022-08-24T09:37:42;30.60;94.90
11474;DHT22;5793;52.238;13.438;2022-08-24T09:40:36;29.00;99.90
11474;DHT22;5793;52.238;13.438;2022-08-24T09:43:29;27.60;99.90
11474;DHT22;5793;52.238;13.438;2022-08-24T09:46:22;26.60;99.90
11474;DHT22;5793;52.238;13.438;2022-08-24T09:49:11;26.00;99.90
11474;DHT22;5793;52.238;13.438;2022-08-24T09:52:08;26.20;99.90
11474;DHT22;5793;52.238;13.438;2022-08-24T09:54:59;27.80;99.90
11474;DHT22;5793;52.238;13.438;2022-08-24T09:57:45;32.00;99.90
11474;DHT22;5793;52.238;13.438;2022-08-24T10:00:32;33.50;99.10
11474;DHT22;5793;52.238;13.438;2022-08-24T10:03:12;31.90;99.00
11474;DHT22;5793;52.238;13.438;2022-08-24T10:05:58;30.20;99.90
11474;DHT22;5793;52.238;13.438;2022-08-24T10:08:39;28.80;99.90
11474;DHT22;5793;52.238;13.438;2022-08-24T10:11:19;28.00;99.90
11474;DHT22;5793;52.238;13.438;2022-08-24T10:13:54;27.50;99.90
11474;DHT22;5793;52.238;13.438;2022-08-24T10:16:35;27.70;99.90
11474;DHT22;5793;52.238;13.438;2022-08-24T10:19:17;28.30;99.90
11474;DHT22;5793;52.238;13.438;2022-08-24T10:21:55;28.30;99.90
11474;DHT22;5793;52.238;13.438;2022-08-24T10:24:45;28.00;99.90
11474;DHT22;5793;52.238;13.438;2022-08-24T10:27:40;29.90;99.90
11474;DHT22;5793;52.238;13.438;2022-08-24T10:30:49;33.90;98.30
11474;DHT22;5793;52.238;13.438;2022-08-24T10:33:21;37.00;84.00
11474;DHT22;5793;52.238;13.438;2022-08-24T10:36:12;38.80;70.40
11474;DHT22;5793;52.238;13.438;2022-08-24T10:38:48;39.90;64.60
11474;DHT22;5793;52.238;13.438;2022-08-24T10:42:06;40.00;62.60
11474;DHT22;5793;52.238;13.438;2022-08-24T10:44:46;39.70;60.20
11474;DHT22;5793;52.238;13.438;2022-08-24T10:47:20;37.20;65.00
11474;DHT22;5793;52.238;13.438;2022-08-24T10:53:19;33.90;72.60
11474;DHT22;5793;52.238;13.438;2022-08-24T10:55:59;33.40;73.70
11474;DHT22;5793;52.238;13.438;2022-08-24T10:58:41;33.00;78.30
11474;DHT22;5793;52.238;13.438;2022-08-24T11:01:22;32.10;79.90
11474;DHT22;5793;52.238;13.438;2022-08-24T11:03:56;31.30;83.50
11474;DHT22;5793;52.238;13.438;2022-08-24T11:06:27;30.80;86.60
11474;DHT22;5793;52.238;13.438;2022-08-24T11:09:00;30.40;86.70
11474;DHT22;5793;52.238;13.438;2022-08-24T11:11:31;30.10;89.90
11474;DHT22;5793;52.238;13.438;2022-08-24T11:14:02;30.00;91.70
11474;DHT22;5793;52.238;13.438;2022-08-24T11:16:38;29.80;91.50
11474;DHT22;5793;52.238;13.438;2022-08-24T11:19:09;29.70;92.90
11474;DHT22;5793;52.238;13.438;2022-08-24T11:21:48;29.40;95.40
11474;DHT22;5793;52.238;13.438;2022-08-24T11:24:38;29.00;98.20
11474;DHT22;5793;52.238;13.438;2022-08-24T11:27:18;28.50;98.60
11474;DHT22;5793;52.238;13.438;2022-08-24T11:30:00;28.00;99.90
11474;DHT22;5793;52.238;13.438;2022-08-24T11:32:36;28.00;99.90
11474;DHT22;5793;52.238;13.438;2022-08-24T11:35:09;28.40;99.90
11474;DHT22;5793;52.238;13.438;2022-08-24T11:37:42;28.90;99.90
11474;DHT22;5793;52.238;13.438;2022-08-24T11:40:11;29.30;99.90
11474;DHT22;5793;52.238;13.438;2022-08-24T11:42:57;29.80;99.90
11474;DHT22;5793;52.238;13.438;2022-08-24T11:45:35;29.80;99.90
11474;DHT22;5793;52.238;13.438;2022-08-24T11:48:15;29.40;99.90
11474;DHT22;5793;52.238;13.438;2022-08-24T11:50:49;28.70;99.90
11474;DHT22;5793;52.238;13.438;2022-08-24T11:53:27;28.10;99.90
11474;DHT22;5793;52.238;13.438;2022-08-24T11:56:03;27.70;99.90
11474;DHT22;5793;52.238;13.438;2022-08-24T11:58:42;27.50;99.90
11474;DHT22;5793;52.238;13.438;2022-08-24T12:01:17;27.40;99.90
11474;DHT22;5793;52.238;13.438;2022-08-24T12:04:03;27.70;99.90
11474;DHT22;5793;52.238;13.438;2022-08-24T12:06:41;28.30;99.90
11474;DHT22;5793;52.238;13.438;2022-08-24T12:09:25;28.70;99.90
11474;DHT22;5793;52.238;13.438;2022-08-24T12:12:02;29.10;99.90
11474;DHT22;5793;52.238;13.438;2022-08-24T12:14:38;29.40;99.90
11474;DHT22;5793;52.238;13.438;2022-08-24T12:17:14;29.60;99.90
11474;DHT22;5793;52.238;13.438;2022-08-24T12:19:48;29.60;99.90
11474;DHT22;5793;52.238;13.438;2022-08-24T12:22:17;29.70;99.90
11474;DHT22;5793;52.238;13.438;2022-08-24T12:24:48;29.80;99.90
11474;DHT22;5793;52.238;13.438;2022-08-24T12:27:19;30.00;99.90
11474;DHT22;5793;52.238;13.438;2022-08-24T12:29:52;30.00;99.90
11474;DHT22;5793;52.238;13.438;2022-08-24T12:32:25;30.00;99.90
11474;DHT22;5793;52.238;13.438;2022-08-24T12:34:59;30.10;99.90
11474;DHT22;5793;52.238;13.438;2022-08-24T12:37:30;30.20;99.90
11474;DHT22;5793;52.238;13.438;2022-08-24T12:40:06;30.30;99.90
11474;DHT22;5793;52.238;13.438;2022-08-24T12:42:42;30.50;99.90
11474;DHT22;5793;52.238;13.438;2022-08-24T12:45:19;30.20;99.90
11474;DHT22;5793;52.238;13.438;2022-08-24T12:47:53;29.90;99.90
11474;DHT22;5793;52.238;13.438;2022-08-24T12:50:28;29.60;99.90
11474;DHT22;5793;52.238;13.438;2022-08-24T12:53:24;29.20;99.90
11474;DHT22;5793;52.238;13.438;2022-08-24T12:56:06;28.60;99.90
11474;DHT22;5793;52.238;13.438;2022-08-24T12:58:56;28.00;99.90
11474;DHT22;5793;52.238;13.438;2022-08-24T13:01:29;27.70;99.90
11474;DHT22;5793;52.238;13.438;2022-08-24T13:04:07;27.70;99.90
11474;DHT22;5793;52.238;13.438;2022-08-24T13:06:40;28.00;99.90
11474;DHT22;5793;52.238;13.438;2022-08-24T13:09:14;28.40;99.90
11474;DHT22;5793;52.238;13.438;2022-08-24T13:11:43;28.60;99.90
11474;DHT22;5793;52.238;13.438;2022-08-24T13:14:17;28.70;99.90
11474;DHT22;5793;52.238;13.438;2022-08-24T13:17:05;28.80;99.90
11474;DHT22;5793;52.238;13.438;2022-08-24T13:19:37;28.70;99.90
11474;DHT22;5793;52.238;13.438;2022-08-24T13:22:36;28.50;99.90
11474;DHT22;5793;52.238;13.438;2022-08-24T13:28:35;28.40;99.90
11474;DHT22;5793;52.238;13.438;2022-08-24T13:31:21;28.30;99.90
11474;DHT22;5793;52.238;13.438;2022-08-24T13:33:54;28.20;99.90
11474;DHT22;5793;52.238;13.438;2022-08-24T13:36:41;27.90;99.90
11474;DHT22;5793;52.238;13.438;2022-08-24T13:39:23;27.70;99.90
11474;DHT22;5793;52.238;13.438;2022-08-24T13:42:16;27.60;99.90
11474;DHT22;5793;52.238;13.438;2022-08-24T13:45:01;27.60;99.90
11474;DHT22;5793;52.238;13.438;2022-08-24T13:47:47;27.80;99.90
11474;DHT22;5793;52.238;13.438;2022-08-24T13:50:32;27.90;99.90
11474;DHT22;5793;52.238;13.438;2022-08-24T13:53:31;28.00;99.90
11474;DHT22;5793;52.238;13.438;2022-08-24T13:56:24;28.10;99.90
11474;DHT22;5793;52.238;13.438;2022-08-24T13:59:04;28.10;99.90
11474;DHT22;5793;52.238;13.438;2022-08-24T14:01:42;28.00;99.90
11474;DHT22;5793;52.238;13.438;2022-08-24T14:04:44;28.00;99.90
11474;DHT22;5793;52.238;13.438;2022-08-24T14:07:18;28.30;99.90
11474;DHT22;5793;52.238;13.438;2022-08-24T14:09:56;28.50;99.90
11474;DHT22;5793;52.238;13.438;2022-08-24T14:12:44;28.50;99.90
11474;DHT22;5793;52.238;13.438;2022-08-24T14:15:23;28.50;99.90
11474;DHT22;5793;52.238;13.438;2022-08-24T14:18:08;28.20;99.90
11474;DHT22;5793;52.238;13.438;2022-08-24T14:20:53;28.00;99.90
11474;DHT22;5793;52.238;13.438;2022-08-24T14:23:44;27.90;99.90
11474;DHT22;5793;52.238;13.438;2022-08-24T14:29:42;28.00;99.90
11474;DHT22;5793;52.238;13.438;2022-08-24T14:32:43;28.00;99.90
11474;DHT22;5793;52.238;13.438;2022-08-24T14:35:18;27.80;99.90
11474;DHT22;5793;52.238;13.438;2022-08-24T14:37:54;27.60;99.90
11474;DHT22;5793;52.238;13.438;2022-08-24T14:40:32;27.50;99.90
11474;DHT22;5793;52.238;13.438;2022-08-24T14:43:19;27.40;99.90
11474;DHT22;5793;52.238;13.438;2022-08-24T14:46:04;27.40;99.90
11474;DHT22;5793;52.238;13.438;2022-08-24T14:48:42;27.30;99.90
11474;DHT22;5793;52.238;13.438;2022-08-24T14:51:25;27.40;99.90
11474;DHT22;5793;52.238;13.438;2022-08-24T14:54:01;27.50;99.90
11474;DHT22;5793;52.238;13.438;2022-08-24T14:56:49;27.60;99.90
11474;DHT22;5793;52.238;13.438;2022-08-24T14:59:30;27.60;99.90
11474;DHT22;5793;52.238;13.438;2022-08-24T15:02:39;27.60;99.90
11474;DHT22;5793;52.238;13.438;2022-08-24T15:05:20;27.70;99.90
11474;DHT22;5793;52.238;13.438;2022-08-24T15:07:55;27.80;99.90
11474;DHT22;5793;52.238;13.438;2022-08-24T15:10:26;27.90;99.90
11474;DHT22;5793;52.238;13.438;2022-08-24T15:12:58;27.90;99.90
11474;DHT22;5793;52.238;13.438;2022-08-24T15:15:33;27.90;99.90
11474;DHT22;5793;52.238;13.438;2022-08-24T15:18:17;27.80;99.90
11474;DHT22;5793;52.238;13.438;2022-08-24T15:21:02;27.70;99.90
11474;DHT22;5793;52.238;13.438;2022-08-24T15:23:44;27.70;99.90
11474;DHT22;5793;52.238;13.438;2022-08-24T15:26:18;27.70;99.90
11474;DHT22;5793;52.238;13.438;2022-08-24T15:28:51;27.60;99.90
11474;DHT22;5793;52.238;13.438;2022-08-24T15:31:24;27.50;99.90
11474;DHT22;5793;52.238;13.438;2022-08-24T15:33:57;27.50;99.90
11474;DHT22;5793;52.238;13.438;2022-08-24T15:36:27;27.50;99.90
11474;DHT22;5793;52.238;13.438;2022-08-24T15:38:55;27.60;99.90
11474;DHT22;5793;52.238;13.438;2022-08-24T15:41:26;27.50;99.90
11474;DHT22;5793;52.238;13.438;2022-08-24T15:43:58;27.40;99.90
11474;DHT22;5793;52.238;13.438;2022-08-24T15:46:30;27.40;99.90
11474;DHT22;5793;52.238;13.438;2022-08-24T15:49:02;27.30;99.90
11474;DHT22;5793;52.238;13.438;2022-08-24T15:51:39;27.40;99.90
11474;DHT22;5793;52.238;13.438;2022-08-24T15:54:16;27.20;99.90
11474;DHT22;5793;52.238;13.438;2022-08-24T15:56:56;27.20;99.90
11474;DHT22;5793;52.238;13.438;2022-08-24T15:59:26;27.30;99.90
11474;DHT22;5793;52.238;13.438;2022-08-24T16:01:56;27.40;99.90
11474;DHT22;5793;52.238;13.438;2022-08-24T16:04:46;27.30;99.90
11474;DHT22;5793;52.238;13.438;2022-08-24T16:07:21;27.30;99.90
11474;DHT22;5793;52.238;13.438;2022-08-24T16:10:03;27.20;99.90
11474;DHT22;5793;52.238;13.438;2022-08-24T16:12:31;27.20;99.90
11474;DHT22;5793;52.238;13.438;2022-08-24T16:15:11;27.20;99.90
11474;DHT22;5793;52.238;13.438;2022-08-24T16:17:43;27.10;99.90
11474;DHT22;5793;52.238;13.438;2022-08-24T16:20:30;27.10;99.90
11474;DHT22;5793;52.238;13.438;2022-08-24T16:23:01;27.10;99.90
11474;DHT22;5793;52.238;13.438;2022-08-24T16:25:31;27.00;99.90
11474;DHT22;5793;52.238;13.438;2022-08-24T16:28:05;27.00;99.90
11474;DHT22;5793;52.238;13.438;2022-08-24T16:30:43;26.90;99.90
11474;DHT22;5793;52.238;13.438;2022-08-24T16:33:34;26.70;99.90